TimeCST,TemperatureF,Dew PointF,Humidity,Sea Level PressureIn,VisibilityMPH,Wind Direction,Wind SpeedMPH,Gust SpeedMPH,PrecipitationIn,Events,Conditions,WindDirDegrees,DateUTC
12:15 AM,54.7,35.8,49,30.08,10.0,North,6.9,-,N/A,,Clear,360,2012-11-06 06:15:00
12:35 AM,54.0,37.0,53,30.08,10.0,North,6.9,-,N/A,,Clear,10,2012-11-06 06:35:00
12:55 AM,53.2,37.9,56,30.08,10.0,North,5.8,-,N/A,,Clear,360,2012-11-06 06:55:00
1:15 AM,52.5,38.3,58,30.07,10.0,Calm,Calm,-,N/A,,Clear,0,2012-11-06 07:15:00
1:35 AM,51.4,38.3,61,30.08,10.0,Calm,Calm,-,N/A,,Clear,0,2012-11-06 07:35:00
1:55 AM,50.2,38.3,64,30.08,10.0,Calm,Calm,-,N/A,,Clear,0,2012-11-06 07:55:00
2:15 AM,49.6,38.5,65,30.09,10.0,Calm,Calm,-,N/A,,Clear,0,2012-11-06 08:15:00
2:35 AM,49.1,38.7,67,30.09,10.0,Calm,Calm,-,N/A,,Clear,0,2012-11-06 08:35:00
2:55 AM,48.2,38.7,70,30.09,10.0,Calm,Calm,-,N/A,,Clear,0,2012-11-06 08:55:00
3:15 AM,46.2,38.8,75,30.09,10.0,Calm,Calm,-,N/A,,Clear,0,2012-11-06 09:15:00
3:35 AM,45.3,39.2,79,30.09,10.0,Calm,Calm,-,N/A,,Clear,0,2012-11-06 09:35:00
3:55 AM,45.3,39.2,79,30.09,10.0,Calm,Calm,-,N/A,,Clear,0,2012-11-06 09:55:00
4:15 AM,44.1,39.0,82,30.09,10.0,Calm,Calm,-,N/A,,Clear,0,2012-11-06 10:15:00
4:35 AM,43.5,39.2,85,30.09,10.0,Calm,Calm,-,N/A,,Clear,0,2012-11-06 10:35:00
4:55 AM,43.5,39.2,85,30.09,10.0,Calm,Calm,-,N/A,,Clear,0,2012-11-06 10:55:00
5:35 AM,42.8,39.2,87,30.09,10.0,Calm,Calm,-,N/A,,Clear,0,2012-11-06 11:35:00
5:55 AM,41.5,38.7,89,30.09,10.0,Calm,Calm,-,N/A,,Clear,0,2012-11-06 11:55:00
6:15 AM,42.6,39.4,88,30.10,10.0,Calm,Calm,-,N/A,,Clear,0,2012-11-06 12:15:00
6:35 AM,44.1,39.7,85,30.11,10.0,Calm,Calm,-,N/A,,Clear,0,2012-11-06 12:35:00
6:55 AM,44.1,40.1,86,30.11,10.0,Calm,Calm,-,N/A,,Clear,0,2012-11-06 12:55:00
7:15 AM,44.2,40.1,85,30.12,10.0,Calm,Calm,-,N/A,,Clear,0,2012-11-06 13:15:00
7:35 AM,46.2,40.3,80,30.14,10.0,Calm,Calm,-,N/A,,Clear,0,2012-11-06 13:35:00
7:55 AM,48.7,40.5,73,30.15,10.0,North,5.8,-,N/A,,Clear,360,2012-11-06 13:55:00
8:15 AM,50.2,40.5,69,30.16,10.0,North,8.1,-,N/A,,Clear,360,2012-11-06 14:15:00
8:35 AM,51.8,40.3,65,30.15,10.0,NNE,5.8,-,N/A,,Clear,20,2012-11-06 14:35:00
8:55 AM,53.1,39.4,60,30.15,10.0,NNE,6.9,-,N/A,,Clear,20,2012-11-06 14:55:00
9:15 AM,54.1,39.4,57,30.15,10.0,NE,5.8,-,N/A,,Clear,40,2012-11-06 15:15:00
9:35 AM,55.2,39.0,54,30.16,10.0,North,6.9,-,N/A,,Clear,360,2012-11-06 15:35:00
9:55 AM,56.1,39.2,53,30.16,10.0,NE,3.5,-,N/A,,Clear,50,2012-11-06 15:55:00
10:15 AM,57.6,39.2,50,30.16,10.0,Calm,Calm,-,N/A,,Clear,0,2012-11-06 16:15:00
10:35 AM,58.3,39.2,49,30.15,10.0,Calm,Calm,-,N/A,,Clear,0,2012-11-06 16:35:00
10:55 AM,59.5,39.0,47,30.16,10.0,Calm,Calm,-,N/A,,Clear,0,2012-11-06 16:55:00
11:15 AM,60.8,38.7,44,30.16,10.0,North,4.6,-,N/A,,Clear,10,2012-11-06 17:15:00
11:35 AM,61.3,38.3,43,30.15,10.0,NW,3.5,-,N/A,,Clear,320,2012-11-06 17:35:00
11:55 AM,62.6,38.5,41,30.14,10.0,NNE,6.9,-,N/A,,Clear,20,2012-11-06 17:55:00
12:15 PM,63.5,38.3,39,30.13,10.0,NE,3.5,-,N/A,,Clear,40,2012-11-06 18:15:00
12:35 PM,64.0,37.4,37,30.11,10.0,Calm,Calm,-,N/A,,Clear,0,2012-11-06 18:35:00
12:55 PM,64.8,37.6,37,30.10,10.0,Calm,Calm,-,N/A,,Clear,0,2012-11-06 18:55:00
1:15 PM,66.2,36.9,34,30.09,10.0,NNW,4.6,-,N/A,,Clear,330,2012-11-06 19:15:00
1:35 PM,66.6,36.5,33,30.08,10.0,NNE,3.5,-,N/A,,Clear,30,2012-11-06 19:35:00
1:55 PM,67.5,37.8,34,30.08,10.0,WSW,4.6,-,N/A,,Clear,250,2012-11-06 19:55:00
2:15 PM,68.0,38.3,34,30.07,10.0,Calm,Calm,-,N/A,,Clear,0,2012-11-06 20:15:00
2:35 PM,68.4,38.7,34,30.07,10.0,West,4.6,-,N/A,,Clear,270,2012-11-06 20:35:00
2:55 PM,68.4,40.6,36,30.06,10.0,Calm,Calm,-,N/A,,Clear,0,2012-11-06 20:55:00
3:15 PM,68.4,41.7,38,30.06,10.0,WNW,3.5,-,N/A,,Clear,290,2012-11-06 21:15:00
3:35 PM,68.2,42.1,39,30.07,10.0,WNW,3.5,-,N/A,,Clear,300,2012-11-06 21:35:00
3:55 PM,67.6,41.5,39,30.07,10.0,WNW,4.6,-,N/A,,Clear,290,2012-11-06 21:55:00
4:15 PM,67.3,40.8,38,30.07,10.0,Calm,Calm,-,N/A,,Clear,0,2012-11-06 22:15:00
4:35 PM,67.1,39.9,37,30.07,10.0,NNW,3.5,-,N/A,,Clear,330,2012-11-06 22:35:00
4:55 PM,66.6,40.6,39,30.06,10.0,Calm,Calm,-,N/A,,Clear,0,2012-11-06 22:55:00
5:15 PM,64.9,41.9,43,30.06,10.0,Calm,Calm,-,N/A,,Clear,0,2012-11-06 23:15:00
5:35 PM,62.6,42.4,48,30.06,10.0,Calm,Calm,-,N/A,,Clear,0,2012-11-06 23:35:00
5:55 PM,59.9,43.5,55,30.07,10.0,Calm,Calm,-,N/A,,Clear,0,2012-11-06 23:55:00
6:15 PM,56.7,44.1,63,30.07,10.0,Calm,Calm,-,N/A,,Clear,0,2012-11-07 00:15:00
6:35 PM,55.4,45.0,68,30.07,10.0,Calm,Calm,-,N/A,,Clear,0,2012-11-07 00:35:00
6:55 PM,54.5,45.5,72,30.07,10.0,Calm,Calm,-,N/A,,Clear,0,2012-11-07 00:55:00
7:15 PM,52.7,45.3,76,30.08,10.0,Calm,Calm,-,N/A,,Clear,0,2012-11-07 01:15:00
7:35 PM,52.3,45.9,79,30.08,10.0,Calm,Calm,-,N/A,,Clear,0,2012-11-07 01:35:00
7:55 PM,52.0,46.2,81,30.09,10.0,Calm,Calm,-,N/A,,Clear,0,2012-11-07 01:55:00
8:15 PM,51.1,45.9,82,30.09,10.0,Calm,Calm,-,N/A,,Clear,0,2012-11-07 02:15:00
8:35 PM,49.8,45.3,84,30.09,10.0,Calm,Calm,-,N/A,,Clear,0,2012-11-07 02:35:00
8:55 PM,49.1,45.1,86,30.09,10.0,Calm,Calm,-,N/A,,Clear,0,2012-11-07 02:55:00
9:15 PM,48.7,45.1,87,30.09,10.0,Calm,Calm,-,N/A,,Clear,0,2012-11-07 03:15:00
9:35 PM,48.2,44.8,88,30.09,10.0,Calm,Calm,-,N/A,,Clear,0,2012-11-07 03:35:00
9:55 PM,48.4,44.8,87,30.09,10.0,Calm,Calm,-,N/A,,Clear,0,2012-11-07 03:55:00
10:15 PM,47.7,44.6,89,30.10,10.0,Calm,Calm,-,N/A,,Clear,0,2012-11-07 04:15:00
10:35 PM,46.8,44.1,90,30.10,10.0,Calm,Calm,-,N/A,,Clear,0,2012-11-07 04:35:00
10:55 PM,46.2,43.7,91,30.10,10.0,Calm,Calm,-,N/A,,Clear,0,2012-11-07 04:55:00
11:15 PM,46.4,43.7,90,30.10,10.0,Calm,Calm,-,N/A,,Clear,0,2012-11-07 05:15:00
11:35 PM,46.0,43.9,92,30.10,10.0,Calm,Calm,-,N/A,,Clear,0,2012-11-07 05:35:00
11:55 PM,45.7,43.3,92,30.10,10.0,Calm,Calm,-,N/A,,Clear,0,2012-11-07 05:55:00